sensor_id;sensor_type;location;lat;lon;timestamp;P1;durP1;ratioP1;P2;durP2;ratioP2
11064;SDS011;5585;52.530;7.320;2022-07-09T00:02:23;3.88;;;3.03;;
11064;SDS011;5585;52.530;7.320;2022-07-09T00:04:50;3.60;;;2.92;;
11064;SDS011;5585;52.530;7.320;2022-07-09T00:07:18;7.88;;;4.00;;
11064;SDS011;5585;52.530;7.320;2022-07-09T00:09:45;3.33;;;3.00;;
11064;SDS011;5585;52.530;7.320;2022-07-09T00:12:12;4.25;;;2.90;;
11064;SDS011;5585;52.530;7.320;2022-07-09T00:14:41;6.03;;;3.33;;
11064;SDS011;5585;52.530;7.320;2022-07-09T00:17:10;7.30;;;3.58;;
11064;SDS011;5585;52.530;7.320;2022-07-09T00:19:37;5.68;;;3.35;;
11064;SDS011;5585;52.530;7.320;2022-07-09T00:22:03;5.47;;;3.10;;
11064;SDS011;5585;52.530;7.320;2022-07-09T00:24:32;5.43;;;3.30;;
11064;SDS011;5585;52.530;7.320;2022-07-09T00:26:59;4.43;;;3.22;;
11064;SDS011;5585;52.530;7.320;2022-07-09T00:29:25;6.50;;;3.20;;
11064;SDS011;5585;52.530;7.320;2022-07-09T00:31:52;4.55;;;3.45;;
11064;SDS011;5585;52.530;7.320;2022-07-09T00:34:18;5.15;;;3.35;;
11064;SDS011;5585;52.530;7.320;2022-07-09T00:36:45;4.50;;;3.65;;
11064;SDS011;5585;52.530;7.320;2022-07-09T00:39:12;5.95;;;3.80;;
11064;SDS011;5585;52.530;7.320;2022-07-09T00:41:41;4.68;;;3.60;;
11064;SDS011;5585;52.530;7.320;2022-07-09T00:44:07;5.47;;;3.53;;
11064;SDS011;5585;52.530;7.320;2022-07-09T00:46:34;5.40;;;3.60;;
11064;SDS011;5585;52.530;7.320;2022-07-09T00:49:00;5.05;;;3.30;;
11064;SDS011;5585;52.530;7.320;2022-07-09T00:51:28;5.50;;;3.45;;
11064;SDS011;5585;52.530;7.320;2022-07-09T00:53:56;6.47;;;3.72;;
11064;SDS011;5585;52.530;7.320;2022-07-09T00:56:23;3.90;;;3.47;;
11064;SDS011;5585;52.530;7.320;2022-07-09T00:58:51;4.70;;;3.60;;
11064;SDS011;5585;52.530;7.320;2022-07-09T01:01:17;7.05;;;3.50;;
11064;SDS011;5585;52.530;7.320;2022-07-09T01:03:44;3.88;;;3.42;;
11064;SDS011;5585;52.530;7.320;2022-07-09T01:06:11;5.47;;;3.70;;
11064;SDS011;5585;52.530;7.320;2022-07-09T01:08:37;4.22;;;3.28;;
11064;SDS011;5585;52.530;7.320;2022-07-09T01:11:04;5.90;;;3.60;;
11064;SDS011;5585;52.530;7.320;2022-07-09T01:13:31;4.60;;;3.60;;
11064;SDS011;5585;52.530;7.320;2022-07-09T01:15:58;6.10;;;3.58;;
11064;SDS011;5585;52.530;7.320;2022-07-09T01:18:25;5.68;;;4.25;;
11064;SDS011;5585;52.530;7.320;2022-07-09T01:20:53;6.53;;;3.33;;
11064;SDS011;5585;52.530;7.320;2022-07-09T01:23:19;7.22;;;3.50;;
11064;SDS011;5585;52.530;7.320;2022-07-09T01:25:46;8.65;;;3.75;;
11064;SDS011;5585;52.530;7.320;2022-07-09T01:28:13;6.15;;;3.78;;
11064;SDS011;5585;52.530;7.320;2022-07-09T01:30:40;4.93;;;3.55;;
11064;SDS011;5585;52.530;7.320;2022-07-09T01:33:06;7.68;;;4.20;;
11064;SDS011;5585;52.530;7.320;2022-07-09T01:35:33;5.25;;;3.67;;
11064;SDS011;5585;52.530;7.320;2022-07-09T01:38:01;8.00;;;3.85;;
11064;SDS011;5585;52.530;7.320;2022-07-09T01:40:27;6.03;;;4.15;;
11064;SDS011;5585;52.530;7.320;2022-07-09T01:42:54;7.25;;;4.13;;
11064;SDS011;5585;52.530;7.320;2022-07-09T01:45:21;5.75;;;3.75;;
11064;SDS011;5585;52.530;7.320;2022-07-09T01:47:48;5.90;;;4.22;;
11064;SDS011;5585;52.530;7.320;2022-07-09T01:50:14;5.88;;;3.85;;
11064;SDS011;5585;52.530;7.320;2022-07-09T01:52:41;7.60;;;4.32;;
11064;SDS011;5585;52.530;7.320;2022-07-09T01:55:10;8.23;;;4.50;;
11064;SDS011;5585;52.530;7.320;2022-07-09T01:57:37;5.72;;;4.10;;
11064;SDS011;5585;52.530;7.320;2022-07-09T02:00:04;7.35;;;4.65;;
11064;SDS011;5585;52.530;7.320;2022-07-09T02:02:30;6.70;;;4.25;;
11064;SDS011;5585;52.530;7.320;2022-07-09T02:04:57;7.25;;;4.60;;
11064;SDS011;5585;52.530;7.320;2022-07-09T02:07:24;6.88;;;4.50;;
11064;SDS011;5585;52.530;7.320;2022-07-09T02:09:51;8.07;;;4.90;;
11064;SDS011;5585;52.530;7.320;2022-07-09T02:12:19;6.93;;;4.70;;
11064;SDS011;5585;52.530;7.320;2022-07-09T02:14:45;8.77;;;4.75;;
11064;SDS011;5585;52.530;7.320;2022-07-09T02:17:12;7.97;;;4.32;;
11064;SDS011;5585;52.530;7.320;2022-07-09T02:19:39;7.45;;;4.82;;
11064;SDS011;5585;52.530;7.320;2022-07-09T02:22:06;6.25;;;4.57;;
11064;SDS011;5585;52.530;7.320;2022-07-09T02:24:32;6.38;;;4.38;;
11064;SDS011;5585;52.530;7.320;2022-07-09T02:26:59;5.53;;;3.97;;
11064;SDS011;5585;52.530;7.320;2022-07-09T02:29:27;8.40;;;4.82;;
11064;SDS011;5585;52.530;7.320;2022-07-09T02:31:53;8.07;;;5.38;;
11064;SDS011;5585;52.530;7.320;2022-07-09T02:34:20;6.28;;;4.80;;
11064;SDS011;5585;52.530;7.320;2022-07-09T02:36:46;7.05;;;4.95;;
11064;SDS011;5585;52.530;7.320;2022-07-09T02:39:13;8.10;;;4.80;;
11064;SDS011;5585;52.530;7.320;2022-07-09T02:41:39;5.82;;;4.03;;
11064;SDS011;5585;52.530;7.320;2022-07-09T02:44:06;7.43;;;3.97;;
11064;SDS011;5585;52.530;7.320;2022-07-09T02:46:34;6.03;;;3.83;;
11064;SDS011;5585;52.530;7.320;2022-07-09T02:49:00;4.38;;;3.65;;
11064;SDS011;5585;52.530;7.320;2022-07-09T02:51:27;6.80;;;4.75;;
11064;SDS011;5585;52.530;7.320;2022-07-09T02:53:54;6.95;;;4.60;;
11064;SDS011;5585;52.530;7.320;2022-07-09T02:56:20;9.48;;;4.85;;
11064;SDS011;5585;52.530;7.320;2022-07-09T02:58:47;6.68;;;4.03;;
11064;SDS011;5585;52.530;7.320;2022-07-09T03:01:13;6.78;;;4.57;;
11064;SDS011;5585;52.530;7.320;2022-07-09T03:03:41;9.60;;;4.25;;
11064;SDS011;5585;52.530;7.320;2022-07-09T03:06:08;5.22;;;4.00;;
11064;SDS011;5585;52.530;7.320;2022-07-09T03:08:34;5.30;;;3.72;;
11064;SDS011;5585;52.530;7.320;2022-07-09T03:11:01;5.90;;;3.47;;
11064;SDS011;5585;52.530;7.320;2022-07-09T03:13:27;4.38;;;3.80;;
11064;SDS011;5585;52.530;7.320;2022-07-09T03:15:54;5.15;;;3.55;;
11064;SDS011;5585;52.530;7.320;2022-07-09T03:18:21;8.15;;;4.75;;
11064;SDS011;5585;52.530;7.320;2022-07-09T03:20:48;7.15;;;4.85;;
11064;SDS011;5585;52.530;7.320;2022-07-09T03:23:16;6.78;;;4.70;;
11064;SDS011;5585;52.530;7.320;2022-07-09T03:25:42;7.43;;;5.10;;
11064;SDS011;5585;52.530;7.320;2022-07-09T03:28:23;6.55;;;4.53;;
11064;SDS011;5585;52.530;7.320;2022-07-09T03:30:50;6.32;;;4.80;;
11064;SDS011;5585;52.530;7.320;2022-07-09T03:33:16;8.70;;;6.05;;
11064;SDS011;5585;52.530;7.320;2022-07-09T03:35:43;7.15;;;5.10;;
11064;SDS011;5585;52.530;7.320;2022-07-09T03:38:11;7.75;;;5.85;;
11064;SDS011;5585;52.530;7.320;2022-07-09T03:40:37;8.02;;;6.07;;
11064;SDS011;5585;52.530;7.320;2022-07-09T03:43:04;6.90;;;5.45;;
11064;SDS011;5585;52.530;7.320;2022-07-09T03:45:30;7.30;;;5.22;;
11064;SDS011;5585;52.530;7.320;2022-07-09T03:47:57;6.25;;;5.55;;
11064;SDS011;5585;52.530;7.320;2022-07-09T03:50:24;6.60;;;5.72;;
11064;SDS011;5585;52.530;7.320;2022-07-09T03:52:50;9.43;;;5.75;;
11064;SDS011;5585;52.530;7.320;2022-07-09T03:55:18;7.22;;;5.68;;
11064;SDS011;5585;52.530;7.320;2022-07-09T03:57:45;8.35;;;5.50;;
11064;SDS011;5585;52.530;7.320;2022-07-09T04:00:12;7.47;;;5.07;;
11064;SDS011;5585;52.530;7.320;2022-07-09T04:02:38;6.10;;;4.85;;
11064;SDS011;5585;52.530;7.320;2022-07-09T04:05:08;5.72;;;4.60;;
11064;SDS011;5585;52.530;7.320;2022-07-09T04:07:35;8.10;;;5.13;;
11064;SDS011;5585;52.530;7.320;2022-07-09T04:10:01;7.07;;;4.85;;
11064;SDS011;5585;52.530;7.320;2022-07-09T04:12:29;5.68;;;5.13;;
11064;SDS011;5585;52.530;7.320;2022-07-09T04:14:56;5.57;;;4.75;;
11064;SDS011;5585;52.530;7.320;2022-07-09T04:17:22;8.77;;;5.47;;
11064;SDS011;5585;52.530;7.320;2022-07-09T04:19:49;5.80;;;5.10;;
11064;SDS011;5585;52.530;7.320;2022-07-09T04:22:15;7.78;;;6.05;;
11064;SDS011;5585;52.530;7.320;2022-07-09T04:24:42;6.22;;;5.05;;
11064;SDS011;5585;52.530;7.320;2022-07-09T04:27:08;6.50;;;4.50;;
11064;SDS011;5585;52.530;7.320;2022-07-09T04:29:36;6.00;;;4.85;;
11064;SDS011;5585;52.530;7.320;2022-07-09T04:32:03;6.28;;;4.95;;
11064;SDS011;5585;52.530;7.320;2022-07-09T04:34:30;6.53;;;4.78;;
11064;SDS011;5585;52.530;7.320;2022-07-09T04:36:57;7.80;;;5.40;;
11064;SDS011;5585;52.530;7.320;2022-07-09T04:39:23;6.82;;;5.15;;
11064;SDS011;5585;52.530;7.320;2022-07-09T04:41:50;7.10;;;5.30;;
11064;SDS011;5585;52.530;7.320;2022-07-09T04:44:16;6.57;;;5.15;;
11064;SDS011;5585;52.530;7.320;2022-07-09T04:46:44;5.68;;;4.90;;
11064;SDS011;5585;52.530;7.320;2022-07-09T04:49:11;7.97;;;5.30;;
11064;SDS011;5585;52.530;7.320;2022-07-09T04:51:38;6.95;;;5.40;;
11064;SDS011;5585;52.530;7.320;2022-07-09T04:54:04;8.18;;;5.90;;
11064;SDS011;5585;52.530;7.320;2022-07-09T04:56:31;6.25;;;5.40;;
11064;SDS011;5585;52.530;7.320;2022-07-09T04:58:57;7.93;;;5.35;;
11064;SDS011;5585;52.530;7.320;2022-07-09T05:01:25;6.45;;;5.20;;
11064;SDS011;5585;52.530;7.320;2022-07-09T05:03:53;4.90;;;4.40;;
11064;SDS011;5585;52.530;7.320;2022-07-09T05:06:20;9.02;;;6.40;;
11064;SDS011;5585;52.530;7.320;2022-07-09T05:08:46;8.02;;;5.60;;
11064;SDS011;5585;52.530;7.320;2022-07-09T05:11:13;6.82;;;5.03;;
11064;SDS011;5585;52.530;7.320;2022-07-09T05:13:40;7.07;;;5.35;;
11064;SDS011;5585;52.530;7.320;2022-07-09T05:16:07;6.55;;;5.50;;
11064;SDS011;5585;52.530;7.320;2022-07-09T05:18:33;7.50;;;6.03;;
11064;SDS011;5585;52.530;7.320;2022-07-09T05:21:02;7.65;;;4.88;;
11064;SDS011;5585;52.530;7.320;2022-07-09T05:23:28;7.63;;;5.10;;
11064;SDS011;5585;52.530;7.320;2022-07-09T05:25:55;6.00;;;4.80;;
11064;SDS011;5585;52.530;7.320;2022-07-09T05:28:21;7.28;;;5.25;;
11064;SDS011;5585;52.530;7.320;2022-07-09T05:30:48;6.15;;;5.05;;
11064;SDS011;5585;52.530;7.320;2022-07-09T05:33:14;6.30;;;5.20;;
11064;SDS011;5585;52.530;7.320;2022-07-09T05:35:42;7.38;;;4.97;;
11064;SDS011;5585;52.530;7.320;2022-07-09T05:38:10;5.50;;;4.68;;
11064;SDS011;5585;52.530;7.320;2022-07-09T05:40:37;7.85;;;5.22;;
11064;SDS011;5585;52.530;7.320;2022-07-09T05:43:03;7.32;;;4.32;;
11064;SDS011;5585;52.530;7.320;2022-07-09T05:45:30;5.85;;;4.55;;
11064;SDS011;5585;52.530;7.320;2022-07-09T05:47:57;5.15;;;3.50;;
11064;SDS011;5585;52.530;7.320;2022-07-09T05:50:23;6.05;;;4.57;;
11064;SDS011;5585;52.530;7.320;2022-07-09T05:52:50;5.55;;;4.68;;
11064;SDS011;5585;52.530;7.320;2022-07-09T05:55:18;5.57;;;4.70;;
11064;SDS011;5585;52.530;7.320;2022-07-09T05:57:44;4.65;;;4.10;;
11064;SDS011;5585;52.530;7.320;2022-07-09T06:00:11;5.03;;;4.10;;
11064;SDS011;5585;52.530;7.320;2022-07-09T06:02:38;4.82;;;3.97;;
11064;SDS011;5585;52.530;7.320;2022-07-09T06:05:04;4.72;;;3.95;;
11064;SDS011;5585;52.530;7.320;2022-07-09T06:07:31;4.32;;;3.85;;
11064;SDS011;5585;52.530;7.320;2022-07-09T06:09:57;7.53;;;4.68;;
11064;SDS011;5585;52.530;7.320;2022-07-09T06:12:25;6.47;;;4.15;;
11064;SDS011;5585;52.530;7.320;2022-07-09T06:14:52;6.05;;;4.05;;
11064;SDS011;5585;52.530;7.320;2022-07-09T06:17:18;10.35;;;4.82;;
11064;SDS011;5585;52.530;7.320;2022-07-09T06:19:45;7.43;;;4.40;;
11064;SDS011;5585;52.530;7.320;2022-07-09T06:22:11;3.25;;;2.95;;
11064;SDS011;5585;52.530;7.320;2022-07-09T06:24:38;4.10;;;2.63;;
11064;SDS011;5585;52.530;7.320;2022-07-09T06:27:07;4.88;;;3.17;;
11064;SDS011;5585;52.530;7.320;2022-07-09T06:29:35;3.92;;;2.63;;
11064;SDS011;5585;52.530;7.320;2022-07-09T06:32:02;6.57;;;3.83;;
11064;SDS011;5585;52.530;7.320;2022-07-09T06:34:29;3.78;;;3.35;;
11064;SDS011;5585;52.530;7.320;2022-07-09T06:36:55;4.22;;;3.40;;
11064;SDS011;5585;52.530;7.320;2022-07-09T06:39:22;6.05;;;4.35;;
11064;SDS011;5585;52.530;7.320;2022-07-09T06:42:06;6.18;;;3.78;;
11064;SDS011;5585;52.530;7.320;2022-07-09T06:44:33;4.95;;;3.25;;
11064;SDS011;5585;52.530;7.320;2022-07-09T06:47:00;4.38;;;3.20;;
11064;SDS011;5585;52.530;7.320;2022-07-09T06:49:27;3.80;;;3.45;;
11064;SDS011;5585;52.530;7.320;2022-07-09T06:51:54;6.05;;;3.78;;
11064;SDS011;5585;52.530;7.320;2022-07-09T06:54:20;5.43;;;3.28;;
11064;SDS011;5585;52.530;7.320;2022-07-09T06:56:47;7.85;;;5.75;;
11064;SDS011;5585;52.530;7.320;2022-07-09T06:59:14;4.40;;;4.00;;
11064;SDS011;5585;52.530;7.320;2022-07-09T07:01:41;4.05;;;3.20;;
11064;SDS011;5585;52.530;7.320;2022-07-09T07:04:09;3.83;;;3.08;;
11064;SDS011;5585;52.530;7.320;2022-07-09T07:06:38;5.90;;;3.80;;
11064;SDS011;5585;52.530;7.320;2022-07-09T07:09:04;3.05;;;2.75;;
11064;SDS011;5585;52.530;7.320;2022-07-09T07:11:31;3.88;;;2.10;;
11064;SDS011;5585;52.530;7.320;2022-07-09T07:13:57;3.05;;;2.30;;
11064;SDS011;5585;52.530;7.320;2022-07-09T07:16:24;4.65;;;2.78;;
11064;SDS011;5585;52.530;7.320;2022-07-09T07:18:51;2.47;;;2.25;;
11064;SDS011;5585;52.530;7.320;2022-07-09T07:21:19;2.88;;;2.47;;
11064;SDS011;5585;52.530;7.320;2022-07-09T07:23:46;5.20;;;3.05;;
11064;SDS011;5585;52.530;7.320;2022-07-09T07:26:13;7.03;;;4.03;;
11064;SDS011;5585;52.530;7.320;2022-07-09T07:28:39;3.70;;;3.10;;
11064;SDS011;5585;52.530;7.320;2022-07-09T07:31:06;3.90;;;2.33;;
11064;SDS011;5585;52.530;7.320;2022-07-09T07:33:32;4.18;;;3.28;;
11064;SDS011;5585;52.530;7.320;2022-07-09T07:35:59;5.30;;;2.85;;
11064;SDS011;5585;52.530;7.320;2022-07-09T07:38:27;3.40;;;2.30;;
11064;SDS011;5585;52.530;7.320;2022-07-09T07:40:53;4.00;;;2.80;;
11064;SDS011;5585;52.530;7.320;2022-07-09T07:43:20;3.67;;;2.45;;
11064;SDS011;5585;52.530;7.320;2022-07-09T07:45:47;3.83;;;3.20;;
11064;SDS011;5585;52.530;7.320;2022-07-09T07:48:13;2.38;;;2.17;;
11064;SDS011;5585;52.530;7.320;2022-07-09T07:50:40;4.07;;;2.92;;
11064;SDS011;5585;52.530;7.320;2022-07-09T07:53:06;3.55;;;2.00;;
11064;SDS011;5585;52.530;7.320;2022-07-09T07:55:34;3.47;;;1.95;;
11064;SDS011;5585;52.530;7.320;2022-07-09T07:58:01;4.88;;;2.92;;
11064;SDS011;5585;52.530;7.320;2022-07-09T08:00:27;3.28;;;2.20;;
11064;SDS011;5585;52.530;7.320;2022-07-09T08:02:54;3.15;;;1.92;;
11064;SDS011;5585;52.530;7.320;2022-07-09T08:05:21;3.70;;;2.20;;
11064;SDS011;5585;52.530;7.320;2022-07-09T08:07:47;4.03;;;2.20;;
11064;SDS011;5585;52.530;7.320;2022-07-09T08:10:14;2.28;;;1.70;;
11064;SDS011;5585;52.530;7.320;2022-07-09T08:12:42;2.10;;;1.63;;
11064;SDS011;5585;52.530;7.320;2022-07-09T08:15:09;2.00;;;1.80;;
11064;SDS011;5585;52.530;7.320;2022-07-09T08:17:35;3.90;;;2.13;;
11064;SDS011;5585;52.530;7.320;2022-07-09T08:20:02;3.47;;;1.70;;
11064;SDS011;5585;52.530;7.320;2022-07-09T08:22:29;2.65;;;1.73;;
11064;SDS011;5585;52.530;7.320;2022-07-09T08:24:55;3.25;;;1.90;;
11064;SDS011;5585;52.530;7.320;2022-07-09T08:27:22;3.28;;;2.28;;
11064;SDS011;5585;52.530;7.320;2022-07-09T08:29:50;5.88;;;2.13;;
11064;SDS011;5585;52.530;7.320;2022-07-09T08:32:16;2.35;;;1.90;;
11064;SDS011;5585;52.530;7.320;2022-07-09T08:34:43;2.40;;;1.70;;
11064;SDS011;5585;52.530;7.320;2022-07-09T08:37:09;3.03;;;1.83;;
11064;SDS011;5585;52.530;7.320;2022-07-09T08:39:35;2.75;;;1.88;;
11064;SDS011;5585;52.530;7.320;2022-07-09T08:42:02;1.75;;;1.40;;
11064;SDS011;5585;52.530;7.320;2022-07-09T08:44:29;2.92;;;1.52;;
11064;SDS011;5585;52.530;7.320;2022-07-09T08:46:59;2.10;;;1.30;;
11064;SDS011;5585;52.530;7.320;2022-07-09T08:49:26;1.58;;;1.20;;
11064;SDS011;5585;52.530;7.320;2022-07-09T08:51:54;1.55;;;1.10;;
11064;SDS011;5585;52.530;7.320;2022-07-09T08:54:21;1.65;;;1.35;;
11064;SDS011;5585;52.530;7.320;2022-07-09T08:56:49;1.52;;;1.00;;
11064;SDS011;5585;52.530;7.320;2022-07-09T08:59:16;4.13;;;1.88;;
11064;SDS011;5585;52.530;7.320;2022-07-09T09:01:42;3.03;;;2.13;;
11064;SDS011;5585;52.530;7.320;2022-07-09T09:04:10;2.00;;;1.60;;
11064;SDS011;5585;52.530;7.320;2022-07-09T09:06:37;2.28;;;2.03;;
11064;SDS011;5585;52.530;7.320;2022-07-09T09:09:06;1.92;;;1.40;;
11064;SDS011;5585;52.530;7.320;2022-07-09T09:11:33;3.08;;;1.80;;
11064;SDS011;5585;52.530;7.320;2022-07-09T09:14:01;3.20;;;1.70;;
11064;SDS011;5585;52.530;7.320;2022-07-09T09:16:28;2.15;;;1.52;;
11064;SDS011;5585;52.530;7.320;2022-07-09T09:18:55;2.35;;;1.60;;
11064;SDS011;5585;52.530;7.320;2022-07-09T09:21:23;1.75;;;1.63;;
11064;SDS011;5585;52.530;7.320;2022-07-09T09:23:51;2.22;;;1.40;;
11064;SDS011;5585;52.530;7.320;2022-07-09T09:26:19;1.08;;;0.95;;
11064;SDS011;5585;52.530;7.320;2022-07-09T09:28:46;1.98;;;1.40;;
11064;SDS011;5585;52.530;7.320;2022-07-09T09:31:22;1.85;;;1.30;;
11064;SDS011;5585;52.530;7.320;2022-07-09T09:33:49;1.67;;;1.25;;
11064;SDS011;5585;52.530;7.320;2022-07-09T09:36:30;1.35;;;0.90;;
11064;SDS011;5585;52.530;7.320;2022-07-09T09:39:13;1.65;;;1.23;;
11064;SDS011;5585;52.530;7.320;2022-07-09T09:41:41;1.42;;;1.10;;
11064;SDS011;5585;52.530;7.320;2022-07-09T09:44:09;1.85;;;1.10;;
11064;SDS011;5585;52.530;7.320;2022-07-09T09:46:36;0.90;;;0.75;;
11064;SDS011;5585;52.530;7.320;2022-07-09T09:49:04;2.08;;;1.10;;
11064;SDS011;5585;52.530;7.320;2022-07-09T09:51:35;2.22;;;1.20;;
11064;SDS011;5585;52.530;7.320;2022-07-09T09:54:03;1.42;;;0.88;;
11064;SDS011;5585;52.530;7.320;2022-07-09T09:56:30;1.38;;;1.10;;
11064;SDS011;5585;52.530;7.320;2022-07-09T09:58:58;2.05;;;1.42;;
11064;SDS011;5585;52.530;7.320;2022-07-09T10:01:25;1.08;;;0.90;;
11064;SDS011;5585;52.530;7.320;2022-07-09T10:03:52;0.93;;;0.85;;
11064;SDS011;5585;52.530;7.320;2022-07-09T10:06:19;1.35;;;1.00;;
11064;SDS011;5585;52.530;7.320;2022-07-09T10:08:47;1.50;;;1.00;;
11064;SDS011;5585;52.530;7.320;2022-07-09T10:11:14;1.50;;;1.10;;
11064;SDS011;5585;52.530;7.320;2022-07-09T10:13:48;1.52;;;1.13;;
11064;SDS011;5585;52.530;7.320;2022-07-09T10:16:15;1.27;;;1.17;;
11064;SDS011;5585;52.530;7.320;2022-07-09T10:18:49;1.25;;;1.00;;
11064;SDS011;5585;52.530;7.320;2022-07-09T10:21:15;1.77;;;0.95;;
11064;SDS011;5585;52.530;7.320;2022-07-09T10:23:49;0.95;;;0.80;;
11064;SDS011;5585;52.530;7.320;2022-07-09T10:26:16;2.35;;;0.93;;
11064;SDS011;5585;52.530;7.320;2022-07-09T10:28:42;1.00;;;0.68;;
11064;SDS011;5585;52.530;7.320;2022-07-09T10:31:09;1.73;;;0.80;;
11064;SDS011;5585;52.530;7.320;2022-07-09T10:33:37;2.60;;;1.20;;
11064;SDS011;5585;52.530;7.320;2022-07-09T10:36:13;1.83;;;1.20;;
11064;SDS011;5585;52.530;7.320;2022-07-09T10:38:40;1.80;;;0.80;;
11064;SDS011;5585;52.530;7.320;2022-07-09T10:41:22;1.58;;;0.93;;
11064;SDS011;5585;52.530;7.320;2022-07-09T10:43:49;0.70;;;0.70;;
11064;SDS011;5585;52.530;7.320;2022-07-09T10:46:17;0.80;;;0.77;;
11064;SDS011;5585;52.530;7.320;2022-07-09T10:48:44;1.10;;;1.00;;
11064;SDS011;5585;52.530;7.320;2022-07-09T10:51:15;1.38;;;1.00;;
11064;SDS011;5585;52.530;7.320;2022-07-09T10:53:43;1.45;;;1.00;;
11064;SDS011;5585;52.530;7.320;2022-07-09T10:56:09;1.08;;;0.98;;
11064;SDS011;5585;52.530;7.320;2022-07-09T10:58:37;1.27;;;1.00;;
11064;SDS011;5585;52.530;7.320;2022-07-09T11:01:03;1.45;;;1.05;;
11064;SDS011;5585;52.530;7.320;2022-07-09T11:03:31;1.38;;;1.13;;
11064;SDS011;5585;52.530;7.320;2022-07-09T11:05:58;2.97;;;2.17;;
11064;SDS011;5585;52.530;7.320;2022-07-09T11:08:24;3.35;;;1.70;;
11064;SDS011;5585;52.530;7.320;2022-07-09T11:10:51;2.55;;;1.40;;
11064;SDS011;5585;52.530;7.320;2022-07-09T11:13:22;1.45;;;0.85;;
11064;SDS011;5585;52.530;7.320;2022-07-09T11:15:57;2.83;;;2.40;;
11064;SDS011;5585;52.530;7.320;2022-07-09T11:18:25;1.85;;;0.85;;
11064;SDS011;5585;52.530;7.320;2022-07-09T11:20:52;1.92;;;0.88;;
11064;SDS011;5585;52.530;7.320;2022-07-09T11:23:18;1.40;;;0.95;;
11064;SDS011;5585;52.530;7.320;2022-07-09T11:25:46;3.85;;;1.02;;
11064;SDS011;5585;52.530;7.320;2022-07-09T11:28:18;1.05;;;0.90;;
11064;SDS011;5585;52.530;7.320;2022-07-09T11:30:45;2.30;;;1.00;;
11064;SDS011;5585;52.530;7.320;2022-07-09T11:33:13;3.13;;;1.02;;
11064;SDS011;5585;52.530;7.320;2022-07-09T11:35:39;1.85;;;0.80;;
11064;SDS011;5585;52.530;7.320;2022-07-09T11:38:09;1.02;;;0.73;;
11064;SDS011;5585;52.530;7.320;2022-07-09T11:40:36;2.08;;;0.80;;
11064;SDS011;5585;52.530;7.320;2022-07-09T11:43:11;2.15;;;1.00;;
11064;SDS011;5585;52.530;7.320;2022-07-09T11:45:38;0.90;;;0.80;;
11064;SDS011;5585;52.530;7.320;2022-07-09T11:48:06;2.25;;;0.80;;
11064;SDS011;5585;52.530;7.320;2022-07-09T11:50:40;2.95;;;0.90;;
11064;SDS011;5585;52.530;7.320;2022-07-09T11:53:18;2.63;;;1.02;;
11064;SDS011;5585;52.530;7.320;2022-07-09T11:55:56;2.05;;;0.85;;
11064;SDS011;5585;52.530;7.320;2022-07-09T11:58:23;1.40;;;1.02;;
11064;SDS011;5585;52.530;7.320;2022-07-09T12:00:49;2.85;;;1.02;;
11064;SDS011;5585;52.530;7.320;2022-07-09T12:03:22;1.75;;;0.90;;
11064;SDS011;5585;52.530;7.320;2022-07-09T12:05:51;3.05;;;1.00;;
11064;SDS011;5585;52.530;7.320;2022-07-09T12:08:25;1.50;;;0.77;;
11064;SDS011;5585;52.530;7.320;2022-07-09T12:10:52;2.28;;;1.02;;
11064;SDS011;5585;52.530;7.320;2022-07-09T12:13:18;3.75;;;1.10;;
11064;SDS011;5585;52.530;7.320;2022-07-09T12:15:45;1.85;;;0.85;;
11064;SDS011;5585;52.530;7.320;2022-07-09T12:18:12;2.13;;;1.00;;
11064;SDS011;5585;52.530;7.320;2022-07-09T12:20:38;1.80;;;0.80;;
11064;SDS011;5585;52.530;7.320;2022-07-09T12:23:06;4.53;;;1.08;;
11064;SDS011;5585;52.530;7.320;2022-07-09T12:25:33;1.65;;;0.82;;
11064;SDS011;5585;52.530;7.320;2022-07-09T12:27:59;2.60;;;1.00;;
11064;SDS011;5585;52.530;7.320;2022-07-09T12:30:26;3.05;;;0.98;;
11064;SDS011;5585;52.530;7.320;2022-07-09T12:32:55;3.42;;;0.90;;
11064;SDS011;5585;52.530;7.320;2022-07-09T12:35:23;2.10;;;0.93;;
11064;SDS011;5585;52.530;7.320;2022-07-09T12:37:50;1.85;;;0.95;;
11064;SDS011;5585;52.530;7.320;2022-07-09T12:40:18;1.52;;;0.73;;
11064;SDS011;5585;52.530;7.320;2022-07-09T12:42:45;4.50;;;1.10;;
11064;SDS011;5585;52.530;7.320;2022-07-09T12:45:11;1.20;;;0.80;;
11064;SDS011;5585;52.530;7.320;2022-07-09T12:47:38;1.02;;;0.70;;
11064;SDS011;5585;52.530;7.320;2022-07-09T12:50:05;1.25;;;0.80;;
11064;SDS011;5585;52.530;7.320;2022-07-09T12:52:31;2.63;;;1.00;;
11064;SDS011;5585;52.530;7.320;2022-07-09T12:54:59;1.48;;;1.10;;
11064;SDS011;5585;52.530;7.320;2022-07-09T12:57:27;2.60;;;0.70;;
11064;SDS011;5585;52.530;7.320;2022-07-09T12:59:54;1.38;;;0.80;;
11064;SDS011;5585;52.530;7.320;2022-07-09T13:02:21;3.40;;;1.08;;
11064;SDS011;5585;52.530;7.320;2022-07-09T13:04:47;2.58;;;1.25;;
11064;SDS011;5585;52.530;7.320;2022-07-09T13:07:14;2.88;;;1.17;;
11064;SDS011;5585;52.530;7.320;2022-07-09T13:09:40;4.57;;;1.05;;
11064;SDS011;5585;52.530;7.320;2022-07-09T13:12:07;2.88;;;1.40;;
11064;SDS011;5585;52.530;7.320;2022-07-09T13:14:35;1.95;;;1.00;;
11064;SDS011;5585;52.530;7.320;2022-07-09T13:17:01;4.18;;;1.27;;
11064;SDS011;5585;52.530;7.320;2022-07-09T13:19:28;2.30;;;1.08;;
11064;SDS011;5585;52.530;7.320;2022-07-09T13:21:55;4.35;;;1.30;;
11064;SDS011;5585;52.530;7.320;2022-07-09T13:24:21;3.65;;;1.25;;
11064;SDS011;5585;52.530;7.320;2022-07-09T13:26:48;3.50;;;1.15;;
11064;SDS011;5585;52.530;7.320;2022-07-09T13:29:14;2.58;;;1.10;;
11064;SDS011;5585;52.530;7.320;2022-07-09T13:31:42;4.47;;;1.42;;
11064;SDS011;5585;52.530;7.320;2022-07-09T13:34:09;2.78;;;1.15;;
11064;SDS011;5585;52.530;7.320;2022-07-09T13:36:35;2.78;;;1.05;;
11064;SDS011;5585;52.530;7.320;2022-07-09T13:39:02;3.03;;;1.00;;
11064;SDS011;5585;52.530;7.320;2022-07-09T13:41:28;4.00;;;1.13;;
11064;SDS011;5585;52.530;7.320;2022-07-09T13:43:55;2.88;;;1.20;;
11064;SDS011;5585;52.530;7.320;2022-07-09T13:46:22;3.67;;;1.25;;
11064;SDS011;5585;52.530;7.320;2022-07-09T13:48:49;5.10;;;1.20;;
11064;SDS011;5585;52.530;7.320;2022-07-09T13:51:16;4.03;;;1.20;;
11064;SDS011;5585;52.530;7.320;2022-07-09T13:53:43;4.65;;;1.10;;
11064;SDS011;5585;52.530;7.320;2022-07-09T13:56:09;2.85;;;1.20;;
11064;SDS011;5585;52.530;7.320;2022-07-09T13:58:36;4.75;;;1.10;;
11064;SDS011;5585;52.530;7.320;2022-07-09T14:01:02;2.22;;;1.17;;
11064;SDS011;5585;52.530;7.320;2022-07-09T14:03:29;3.72;;;1.13;;
11064;SDS011;5585;52.530;7.320;2022-07-09T14:05:57;3.80;;;1.00;;
11064;SDS011;5585;52.530;7.320;2022-07-09T14:08:23;4.93;;;1.30;;
11064;SDS011;5585;52.530;7.320;2022-07-09T14:10:52;2.70;;;0.93;;
11064;SDS011;5585;52.530;7.320;2022-07-09T14:13:23;3.30;;;1.30;;
11064;SDS011;5585;52.530;7.320;2022-07-09T14:15:51;3.47;;;1.55;;
11064;SDS011;5585;52.530;7.320;2022-07-09T14:18:18;3.28;;;1.10;;
11064;SDS011;5585;52.530;7.320;2022-07-09T14:20:45;1.83;;;0.80;;
11064;SDS011;5585;52.530;7.320;2022-07-09T14:23:13;3.95;;;1.15;;
11064;SDS011;5585;52.530;7.320;2022-07-09T14:25:39;3.78;;;1.00;;
11064;SDS011;5585;52.530;7.320;2022-07-09T14:28:06;4.82;;;1.10;;
11064;SDS011;5585;52.530;7.320;2022-07-09T14:30:32;5.70;;;1.00;;
11064;SDS011;5585;52.530;7.320;2022-07-09T14:32:59;2.50;;;1.05;;
11064;SDS011;5585;52.530;7.320;2022-07-09T14:35:26;1.55;;;0.80;;
11064;SDS011;5585;52.530;7.320;2022-07-09T14:37:52;2.83;;;0.80;;
11064;SDS011;5585;52.530;7.320;2022-07-09T14:40:20;4.30;;;1.10;;
11064;SDS011;5585;52.530;7.320;2022-07-09T14:42:47;3.55;;;0.90;;
11064;SDS011;5585;52.530;7.320;2022-07-09T14:45:13;2.88;;;1.10;;
11064;SDS011;5585;52.530;7.320;2022-07-09T14:47:40;2.03;;;0.90;;
11064;SDS011;5585;52.530;7.320;2022-07-09T14:50:07;1.80;;;0.70;;
11064;SDS011;5585;52.530;7.320;2022-07-09T14:52:33;4.35;;;1.20;;
11064;SDS011;5585;52.530;7.320;2022-07-09T14:55:01;1.55;;;0.70;;
11064;SDS011;5585;52.530;7.320;2022-07-09T14:57:29;2.83;;;0.80;;
11064;SDS011;5585;52.530;7.320;2022-07-09T14:59:55;2.58;;;0.80;;
11064;SDS011;5585;52.530;7.320;2022-07-09T15:02:22;3.85;;;0.90;;